sensor_id;sensor_type;location;lat;lon;timestamp;P1;durP1;ratioP1;P2;durP2;ratioP2
4980;SDS011;2507;50.392;7.482;2022-10-12T00:01:09;15.63;;;8.33;;
4980;SDS011;2507;50.392;7.482;2022-10-12T00:03:35;9.83;;;7.97;;
4980;SDS011;2507;50.392;7.482;2022-10-12T00:08:28;15.27;;;8.20;;
4980;SDS011;2507;50.392;7.482;2022-10-12T00:10:53;24.43;;;10.50;;
4980;SDS011;2507;50.392;7.482;2022-10-12T00:13:18;11.60;;;9.57;;
4980;SDS011;2507;50.392;7.482;2022-10-12T00:15:44;16.60;;;8.67;;
4980;SDS011;2507;50.392;7.482;2022-10-12T00:18:09;10.90;;;8.00;;
4980;SDS011;2507;50.392;7.482;2022-10-12T00:20:34;12.53;;;7.90;;
4980;SDS011;2507;50.392;7.482;2022-10-12T00:23:00;10.67;;;7.47;;
4980;SDS011;2507;50.392;7.482;2022-10-12T00:25:25;13.37;;;7.03;;
4980;SDS011;2507;50.392;7.482;2022-10-12T00:27:50;11.93;;;8.70;;
4980;SDS011;2507;50.392;7.482;2022-10-12T00:30:16;10.33;;;8.23;;
4980;SDS011;2507;50.392;7.482;2022-10-12T00:32:41;11.40;;;7.80;;
4980;SDS011;2507;50.392;7.482;2022-10-12T00:35:07;10.50;;;7.90;;
4980;SDS011;2507;50.392;7.482;2022-10-12T00:37:32;9.50;;;7.73;;
4980;SDS011;2507;50.392;7.482;2022-10-12T00:39:57;14.40;;;8.50;;
4980;SDS011;2507;50.392;7.482;2022-10-12T00:42:23;9.87;;;7.30;;
4980;SDS011;2507;50.392;7.482;2022-10-12T00:44:49;8.63;;;7.10;;
4980;SDS011;2507;50.392;7.482;2022-10-12T00:49:47;7.80;;;7.03;;
4980;SDS011;2507;50.392;7.482;2022-10-12T00:52:16;10.20;;;7.80;;
4980;SDS011;2507;50.392;7.482;2022-10-12T00:54:45;9.83;;;7.30;;
4980;SDS011;2507;50.392;7.482;2022-10-12T00:57:13;11.00;;;7.47;;
4980;SDS011;2507;50.392;7.482;2022-10-12T00:59:44;13.97;;;7.27;;
4980;SDS011;2507;50.392;7.482;2022-10-12T01:02:14;14.23;;;7.63;;
4980;SDS011;2507;50.392;7.482;2022-10-12T01:04:39;22.97;;;11.87;;
4980;SDS011;2507;50.392;7.482;2022-10-12T01:07:05;18.43;;;9.70;;
4980;SDS011;2507;50.392;7.482;2022-10-12T01:09:31;15.73;;;7.97;;
4980;SDS011;2507;50.392;7.482;2022-10-12T01:11:57;9.97;;;6.47;;
4980;SDS011;2507;50.392;7.482;2022-10-12T01:14:22;19.93;;;8.23;;
4980;SDS011;2507;50.392;7.482;2022-10-12T01:19:41;8.17;;;7.07;;
4980;SDS011;2507;50.392;7.482;2022-10-12T01:22:13;25.73;;;9.37;;
4980;SDS011;2507;50.392;7.482;2022-10-12T01:24:47;15.80;;;8.63;;
4980;SDS011;2507;50.392;7.482;2022-10-12T01:30:23;9.80;;;6.20;;
4980;SDS011;2507;50.392;7.482;2022-10-12T01:35:46;9.80;;;7.23;;
4980;SDS011;2507;50.392;7.482;2022-10-12T01:40:58;6.70;;;5.70;;
4980;SDS011;2507;50.392;7.482;2022-10-12T01:43:33;12.90;;;6.70;;
4980;SDS011;2507;50.392;7.482;2022-10-12T01:46:43;9.93;;;6.60;;
4980;SDS011;2507;50.392;7.482;2022-10-12T01:48:51;8.13;;;5.73;;
4980;SDS011;2507;50.392;7.482;2022-10-12T01:51:35;11.10;;;6.70;;
4980;SDS011;2507;50.392;7.482;2022-10-12T01:57:03;14.83;;;7.83;;
4980;SDS011;2507;50.392;7.482;2022-10-12T02:02:14;19.63;;;7.47;;
4980;SDS011;2507;50.392;7.482;2022-10-12T02:07:43;21.40;;;11.40;;
4980;SDS011;2507;50.392;7.482;2022-10-12T02:10:15;16.20;;;10.43;;
4980;SDS011;2507;50.392;7.482;2022-10-12T02:12:46;16.70;;;8.33;;
4980;SDS011;2507;50.392;7.482;2022-10-12T02:15:13;18.40;;;6.90;;
4980;SDS011;2507;50.392;7.482;2022-10-12T02:17:41;12.87;;;10.70;;
4980;SDS011;2507;50.392;7.482;2022-10-12T02:20:12;13.40;;;10.33;;
4980;SDS011;2507;50.392;7.482;2022-10-12T02:22:40;14.93;;;10.67;;
4980;SDS011;2507;50.392;7.482;2022-10-12T02:25:10;14.07;;;11.07;;
4980;SDS011;2507;50.392;7.482;2022-10-12T02:27:38;14.30;;;11.17;;
4980;SDS011;2507;50.392;7.482;2022-10-12T02:30:07;21.70;;;12.83;;
4980;SDS011;2507;50.392;7.482;2022-10-12T02:35:13;21.67;;;11.17;;
4980;SDS011;2507;50.392;7.482;2022-10-12T02:38:01;14.50;;;10.03;;
4980;SDS011;2507;50.392;7.482;2022-10-12T02:40:34;17.57;;;10.53;;
4980;SDS011;2507;50.392;7.482;2022-10-12T02:43:12;27.13;;;11.10;;
4980;SDS011;2507;50.392;7.482;2022-10-12T02:45:42;11.80;;;10.00;;
4980;SDS011;2507;50.392;7.482;2022-10-12T02:48:10;11.57;;;10.37;;
4980;SDS011;2507;50.392;7.482;2022-10-12T02:50:40;72.63;;;12.47;;
4980;SDS011;2507;50.392;7.482;2022-10-12T02:53:06;39.13;;;10.50;;
4980;SDS011;2507;50.392;7.482;2022-10-12T02:55:36;10.80;;;9.53;;
4980;SDS011;2507;50.392;7.482;2022-10-12T02:58:02;29.20;;;11.10;;
4980;SDS011;2507;50.392;7.482;2022-10-12T03:00:27;20.70;;;9.80;;
4980;SDS011;2507;50.392;7.482;2022-10-12T03:02:53;15.70;;;10.00;;
4980;SDS011;2507;50.392;7.482;2022-10-12T03:05:19;14.80;;;9.67;;
4980;SDS011;2507;50.392;7.482;2022-10-12T03:07:44;10.17;;;8.80;;
4980;SDS011;2507;50.392;7.482;2022-10-12T03:10:09;94.90;;;11.60;;
4980;SDS011;2507;50.392;7.482;2022-10-12T03:12:34;11.90;;;9.87;;
4980;SDS011;2507;50.392;7.482;2022-10-12T03:15:00;9.97;;;8.90;;
4980;SDS011;2507;50.392;7.482;2022-10-12T03:17:25;12.70;;;10.83;;
4980;SDS011;2507;50.392;7.482;2022-10-12T03:19:50;13.03;;;10.57;;
4980;SDS011;2507;50.392;7.482;2022-10-12T03:22:16;12.40;;;9.30;;
4980;SDS011;2507;50.392;7.482;2022-10-12T03:24:41;10.57;;;9.30;;
4980;SDS011;2507;50.392;7.482;2022-10-12T03:27:06;14.43;;;9.50;;
4980;SDS011;2507;50.392;7.482;2022-10-12T03:29:31;9.07;;;8.17;;
4980;SDS011;2507;50.392;7.482;2022-10-12T03:31:57;18.60;;;8.40;;
4980;SDS011;2507;50.392;7.482;2022-10-12T03:34:22;10.53;;;8.70;;
4980;SDS011;2507;50.392;7.482;2022-10-12T03:36:47;9.30;;;8.40;;
4980;SDS011;2507;50.392;7.482;2022-10-12T03:39:12;9.17;;;8.27;;
4980;SDS011;2507;50.392;7.482;2022-10-12T03:41:38;45.00;;;9.10;;
4980;SDS011;2507;50.392;7.482;2022-10-12T03:44:03;88.33;;;10.00;;
4980;SDS011;2507;50.392;7.482;2022-10-12T03:46:28;50.17;;;8.47;;
4980;SDS011;2507;50.392;7.482;2022-10-12T03:48:54;8.67;;;7.87;;
4980;SDS011;2507;50.392;7.482;2022-10-12T03:51:19;9.70;;;8.70;;
4980;SDS011;2507;50.392;7.482;2022-10-12T03:53:44;11.27;;;8.43;;
4980;SDS011;2507;50.392;7.482;2022-10-12T03:56:10;9.73;;;8.73;;
4980;SDS011;2507;50.392;7.482;2022-10-12T03:58:35;7.97;;;7.17;;
4980;SDS011;2507;50.392;7.482;2022-10-12T04:01:01;9.23;;;8.30;;
4980;SDS011;2507;50.392;7.482;2022-10-12T04:03:27;20.03;;;9.00;;
4980;SDS011;2507;50.392;7.482;2022-10-12T04:05:56;40.97;;;10.47;;
4980;SDS011;2507;50.392;7.482;2022-10-12T04:08:22;14.47;;;8.13;;
4980;SDS011;2507;50.392;7.482;2022-10-12T04:10:48;9.27;;;8.23;;
4980;SDS011;2507;50.392;7.482;2022-10-12T04:13:16;9.27;;;8.37;;
4980;SDS011;2507;50.392;7.482;2022-10-12T04:15:42;11.37;;;9.20;;
4980;SDS011;2507;50.392;7.482;2022-10-12T04:18:08;8.80;;;7.90;;
4980;SDS011;2507;50.392;7.482;2022-10-12T04:20:33;14.30;;;8.23;;
4980;SDS011;2507;50.392;7.482;2022-10-12T04:22:58;9.60;;;8.67;;
4980;SDS011;2507;50.392;7.482;2022-10-12T04:25:23;18.93;;;8.17;;
4980;SDS011;2507;50.392;7.482;2022-10-12T04:27:49;8.47;;;7.57;;
4980;SDS011;2507;50.392;7.482;2022-10-12T04:30:14;10.60;;;8.40;;
4980;SDS011;2507;50.392;7.482;2022-10-12T04:32:39;9.37;;;8.37;;
4980;SDS011;2507;50.392;7.482;2022-10-12T04:35:05;9.17;;;8.30;;
4980;SDS011;2507;50.392;7.482;2022-10-12T04:37:30;8.30;;;7.50;;
4980;SDS011;2507;50.392;7.482;2022-10-12T04:39:56;9.17;;;8.27;;
4980;SDS011;2507;50.392;7.482;2022-10-12T04:42:21;15.20;;;8.43;;
4980;SDS011;2507;50.392;7.482;2022-10-12T04:44:46;8.53;;;7.60;;
4980;SDS011;2507;50.392;7.482;2022-10-12T04:47:12;12.43;;;7.83;;
4980;SDS011;2507;50.392;7.482;2022-10-12T04:49:37;8.83;;;7.97;;
4980;SDS011;2507;50.392;7.482;2022-10-12T04:52:02;10.23;;;7.50;;
4980;SDS011;2507;50.392;7.482;2022-10-12T04:54:27;11.60;;;7.57;;
4980;SDS011;2507;50.392;7.482;2022-10-12T04:56:53;10.10;;;8.20;;
4980;SDS011;2507;50.392;7.482;2022-10-12T04:59:18;10.87;;;7.70;;
4980;SDS011;2507;50.392;7.482;2022-10-12T05:01:43;9.20;;;8.27;;
4980;SDS011;2507;50.392;7.482;2022-10-12T05:04:09;9.33;;;7.27;;
4980;SDS011;2507;50.392;7.482;2022-10-12T05:06:34;12.70;;;7.20;;
4980;SDS011;2507;50.392;7.482;2022-10-12T05:08:59;8.10;;;7.40;;
4980;SDS011;2507;50.392;7.482;2022-10-12T05:11:25;7.90;;;7.10;;
4980;SDS011;2507;50.392;7.482;2022-10-12T05:13:50;8.20;;;7.23;;
4980;SDS011;2507;50.392;7.482;2022-10-12T05:16:15;10.63;;;7.70;;
4980;SDS011;2507;50.392;7.482;2022-10-12T05:18:40;8.97;;;7.00;;
4980;SDS011;2507;50.392;7.482;2022-10-12T05:21:06;9.97;;;7.70;;
4980;SDS011;2507;50.392;7.482;2022-10-12T05:23:31;9.53;;;7.07;;
4980;SDS011;2507;50.392;7.482;2022-10-12T05:25:56;8.00;;;7.20;;
4980;SDS011;2507;50.392;7.482;2022-10-12T05:28:22;7.70;;;7.00;;
4980;SDS011;2507;50.392;7.482;2022-10-12T05:30:51;8.27;;;7.50;;
4980;SDS011;2507;50.392;7.482;2022-10-12T05:33:17;8.00;;;7.20;;
4980;SDS011;2507;50.392;7.482;2022-10-12T05:35:42;8.90;;;7.30;;
4980;SDS011;2507;50.392;7.482;2022-10-12T05:38:08;12.50;;;8.20;;
4980;SDS011;2507;50.392;7.482;2022-10-12T05:40:33;9.00;;;8.07;;
4980;SDS011;2507;50.392;7.482;2022-10-12T05:42:59;11.23;;;8.97;;
4980;SDS011;2507;50.392;7.482;2022-10-12T05:45:24;30.03;;;9.57;;
4980;SDS011;2507;50.392;7.482;2022-10-12T05:47:49;8.40;;;7.60;;
4980;SDS011;2507;50.392;7.482;2022-10-12T05:50:15;8.67;;;7.33;;
4980;SDS011;2507;50.392;7.482;2022-10-12T05:52:40;10.40;;;8.37;;
4980;SDS011;2507;50.392;7.482;2022-10-12T05:55:06;9.13;;;7.50;;
4980;SDS011;2507;50.392;7.482;2022-10-12T05:57:31;10.77;;;9.60;;
4980;SDS011;2507;50.392;7.482;2022-10-12T05:59:56;11.43;;;8.90;;
4980;SDS011;2507;50.392;7.482;2022-10-12T06:02:22;12.10;;;10.37;;
4980;SDS011;2507;50.392;7.482;2022-10-12T06:04:47;21.17;;;15.43;;
4980;SDS011;2507;50.392;7.482;2022-10-12T06:07:12;26.93;;;13.23;;
4980;SDS011;2507;50.392;7.482;2022-10-12T06:09:37;10.30;;;9.00;;
4980;SDS011;2507;50.392;7.482;2022-10-12T06:12:04;11.50;;;8.40;;
4980;SDS011;2507;50.392;7.482;2022-10-12T06:14:30;9.33;;;8.37;;
4980;SDS011;2507;50.392;7.482;2022-10-12T06:16:55;8.90;;;8.10;;
4980;SDS011;2507;50.392;7.482;2022-10-12T06:19:20;11.93;;;7.70;;
4980;SDS011;2507;50.392;7.482;2022-10-12T06:21:45;13.40;;;10.40;;
4980;SDS011;2507;50.392;7.482;2022-10-12T06:24:11;19.03;;;11.17;;
4980;SDS011;2507;50.392;7.482;2022-10-12T06:26:36;17.03;;;8.57;;
4980;SDS011;2507;50.392;7.482;2022-10-12T06:29:01;8.10;;;7.40;;
4980;SDS011;2507;50.392;7.482;2022-10-12T06:31:27;15.97;;;11.17;;
4980;SDS011;2507;50.392;7.482;2022-10-12T06:33:53;40.80;;;8.17;;
4980;SDS011;2507;50.392;7.482;2022-10-12T06:36:18;21.83;;;7.30;;
4980;SDS011;2507;50.392;7.482;2022-10-12T06:38:44;19.70;;;7.93;;
4980;SDS011;2507;50.392;7.482;2022-10-12T06:41:09;21.40;;;7.60;;
4980;SDS011;2507;50.392;7.482;2022-10-12T06:43:35;23.53;;;7.37;;
4980;SDS011;2507;50.392;7.482;2022-10-12T06:46:01;8.33;;;7.60;;
4980;SDS011;2507;50.392;7.482;2022-10-12T06:48:27;14.90;;;8.40;;
4980;SDS011;2507;50.392;7.482;2022-10-12T06:50:53;76.47;;;9.10;;
4980;SDS011;2507;50.392;7.482;2022-10-12T06:53:18;8.60;;;7.80;;
4980;SDS011;2507;50.392;7.482;2022-10-12T06:55:43;9.93;;;8.80;;
4980;SDS011;2507;50.392;7.482;2022-10-12T06:58:09;17.20;;;11.13;;
4980;SDS011;2507;50.392;7.482;2022-10-12T07:00:35;16.20;;;11.53;;
4980;SDS011;2507;50.392;7.482;2022-10-12T07:03:00;14.37;;;7.40;;
4980;SDS011;2507;50.392;7.482;2022-10-12T07:05:26;8.13;;;7.33;;
4980;SDS011;2507;50.392;7.482;2022-10-12T07:07:51;12.07;;;9.77;;
4980;SDS011;2507;50.392;7.482;2022-10-12T07:10:17;8.60;;;6.97;;
4980;SDS011;2507;50.392;7.482;2022-10-12T07:12:43;15.47;;;6.70;;
4980;SDS011;2507;50.392;7.482;2022-10-12T07:15:08;12.97;;;8.07;;
4980;SDS011;2507;50.392;7.482;2022-10-12T07:17:34;7.97;;;6.87;;
4980;SDS011;2507;50.392;7.482;2022-10-12T07:19:59;19.20;;;11.57;;
4980;SDS011;2507;50.392;7.482;2022-10-12T07:22:25;7.73;;;7.07;;
4980;SDS011;2507;50.392;7.482;2022-10-12T07:24:50;7.77;;;7.03;;
4980;SDS011;2507;50.392;7.482;2022-10-12T07:27:15;9.03;;;8.10;;
4980;SDS011;2507;50.392;7.482;2022-10-12T07:29:41;11.77;;;7.07;;
4980;SDS011;2507;50.392;7.482;2022-10-12T07:32:06;9.97;;;6.80;;
4980;SDS011;2507;50.392;7.482;2022-10-12T07:34:32;11.90;;;9.00;;
4980;SDS011;2507;50.392;7.482;2022-10-12T07:36:57;13.10;;;11.10;;
4980;SDS011;2507;50.392;7.482;2022-10-12T07:39:23;8.90;;;7.20;;
4980;SDS011;2507;50.392;7.482;2022-10-12T07:41:49;7.97;;;7.30;;
4980;SDS011;2507;50.392;7.482;2022-10-12T07:44:16;7.10;;;6.50;;
4980;SDS011;2507;50.392;7.482;2022-10-12T07:46:42;8.47;;;6.50;;
4980;SDS011;2507;50.392;7.482;2022-10-12T07:49:07;7.33;;;6.67;;
4980;SDS011;2507;50.392;7.482;2022-10-12T07:51:32;7.80;;;7.10;;
4980;SDS011;2507;50.392;7.482;2022-10-12T07:53:57;11.43;;;7.17;;
4980;SDS011;2507;50.392;7.482;2022-10-12T07:56:24;7.27;;;6.53;;
4980;SDS011;2507;50.392;7.482;2022-10-12T07:58:53;7.67;;;6.97;;
4980;SDS011;2507;50.392;7.482;2022-10-12T08:01:20;13.77;;;6.93;;
4980;SDS011;2507;50.392;7.482;2022-10-12T08:03:47;6.13;;;5.73;;
4980;SDS011;2507;50.392;7.482;2022-10-12T08:06:14;7.23;;;6.10;;
4980;SDS011;2507;50.392;7.482;2022-10-12T08:08:41;6.53;;;6.03;;
4980;SDS011;2507;50.392;7.482;2022-10-12T08:11:07;8.20;;;6.70;;
4980;SDS011;2507;50.392;7.482;2022-10-12T08:13:34;9.33;;;7.40;;
4980;SDS011;2507;50.392;7.482;2022-10-12T08:16:01;6.97;;;6.27;;
4980;SDS011;2507;50.392;7.482;2022-10-12T08:18:28;6.97;;;6.27;;
4980;SDS011;2507;50.392;7.482;2022-10-12T08:20:54;6.53;;;6.03;;
4980;SDS011;2507;50.392;7.482;2022-10-12T08:23:20;6.43;;;5.93;;
4980;SDS011;2507;50.392;7.482;2022-10-12T08:25:54;8.37;;;7.50;;
4980;SDS011;2507;50.392;7.482;2022-10-12T08:28:21;7.10;;;6.50;;
4980;SDS011;2507;50.392;7.482;2022-10-12T08:30:47;7.60;;;6.20;;
4980;SDS011;2507;50.392;7.482;2022-10-12T08:33:13;7.73;;;6.60;;
4980;SDS011;2507;50.392;7.482;2022-10-12T08:35:39;9.80;;;7.27;;
4980;SDS011;2507;50.392;7.482;2022-10-12T08:38:06;8.40;;;7.70;;
4980;SDS011;2507;50.392;7.482;2022-10-12T08:40:34;10.90;;;7.70;;
4980;SDS011;2507;50.392;7.482;2022-10-12T08:46:05;8.33;;;7.50;;
4980;SDS011;2507;50.392;7.482;2022-10-12T08:48:42;8.87;;;7.60;;
4980;SDS011;2507;50.392;7.482;2022-10-12T08:51:27;8.73;;;7.93;;
4980;SDS011;2507;50.392;7.482;2022-10-12T08:54:02;8.40;;;7.60;;
4980;SDS011;2507;50.392;7.482;2022-10-12T08:56:35;8.60;;;6.80;;
4980;SDS011;2507;50.392;7.482;2022-10-12T08:59:04;11.80;;;8.60;;
4980;SDS011;2507;50.392;7.482;2022-10-12T09:01:30;12.07;;;8.60;;
4980;SDS011;2507;50.392;7.482;2022-10-12T09:06:32;9.50;;;8.57;;
4980;SDS011;2507;50.392;7.482;2022-10-12T09:12:15;9.50;;;7.60;;
4980;SDS011;2507;50.392;7.482;2022-10-12T09:14:54;9.57;;;7.90;;
4980;SDS011;2507;50.392;7.482;2022-10-12T09:17:26;9.40;;;8.40;;
4980;SDS011;2507;50.392;7.482;2022-10-12T09:20:03;10.20;;;7.70;;
4980;SDS011;2507;50.392;7.482;2022-10-12T09:22:40;8.17;;;7.37;;
4980;SDS011;2507;50.392;7.482;2022-10-12T09:25:10;9.10;;;7.73;;
4980;SDS011;2507;50.392;7.482;2022-10-12T09:27:37;8.63;;;7.23;;
4980;SDS011;2507;50.392;7.482;2022-10-12T09:30:05;8.67;;;7.77;;
4980;SDS011;2507;50.392;7.482;2022-10-12T09:35:23;10.63;;;8.10;;
4980;SDS011;2507;50.392;7.482;2022-10-12T09:37:49;10.67;;;7.73;;
4980;SDS011;2507;50.392;7.482;2022-10-12T09:40:24;9.90;;;7.90;;
4980;SDS011;2507;50.392;7.482;2022-10-12T09:42:54;9.43;;;7.60;;
4980;SDS011;2507;50.392;7.482;2022-10-12T09:45:21;8.73;;;7.83;;
4980;SDS011;2507;50.392;7.482;2022-10-12T09:50:41;13.10;;;8.23;;
4980;SDS011;2507;50.392;7.482;2022-10-12T09:53:13;9.67;;;8.73;;
4980;SDS011;2507;50.392;7.482;2022-10-12T09:55:52;9.43;;;8.43;;
4980;SDS011;2507;50.392;7.482;2022-10-12T09:58:22;11.07;;;8.30;;
4980;SDS011;2507;50.392;7.482;2022-10-12T10:01:09;10.00;;;8.60;;
4980;SDS011;2507;50.392;7.482;2022-10-12T10:03:49;10.73;;;8.97;;
4980;SDS011;2507;50.392;7.482;2022-10-12T10:06:31;8.93;;;8.00;;
4980;SDS011;2507;50.392;7.482;2022-10-12T10:08:56;8.67;;;7.87;;
4980;SDS011;2507;50.392;7.482;2022-10-12T10:11:22;14.20;;;8.37;;
4980;SDS011;2507;50.392;7.482;2022-10-12T10:13:52;14.97;;;9.03;;
4980;SDS011;2507;50.392;7.482;2022-10-12T10:16:19;11.37;;;8.23;;
4980;SDS011;2507;50.392;7.482;2022-10-12T10:23:53;8.73;;;7.63;;
4980;SDS011;2507;50.392;7.482;2022-10-12T10:26:22;8.40;;;7.60;;
4980;SDS011;2507;50.392;7.482;2022-10-12T10:28:50;8.10;;;7.40;;
4980;SDS011;2507;50.392;7.482;2022-10-12T10:31:21;10.10;;;7.97;;
4980;SDS011;2507;50.392;7.482;2022-10-12T10:34:09;9.37;;;8.37;;
4980;SDS011;2507;50.392;7.482;2022-10-12T10:36:43;9.83;;;8.17;;
4980;SDS011;2507;50.392;7.482;2022-10-12T10:39:15;13.07;;;9.00;;
4980;SDS011;2507;50.392;7.482;2022-10-12T10:41:43;9.70;;;8.57;;
4980;SDS011;2507;50.392;7.482;2022-10-12T10:44:17;9.20;;;8.20;;
4980;SDS011;2507;50.392;7.482;2022-10-12T10:46:48;11.57;;;7.50;;
4980;SDS011;2507;50.392;7.482;2022-10-12T10:51:59;10.27;;;7.90;;
4980;SDS011;2507;50.392;7.482;2022-10-12T10:54:31;7.47;;;6.70;;
4980;SDS011;2507;50.392;7.482;2022-10-12T10:57:00;8.70;;;7.00;;
4980;SDS011;2507;50.392;7.482;2022-10-12T10:59:43;9.03;;;6.63;;
4980;SDS011;2507;50.392;7.482;2022-10-12T11:04:57;13.67;;;10.40;;
4980;SDS011;2507;50.392;7.482;2022-10-12T11:07:36;9.90;;;8.37;;
4980;SDS011;2507;50.392;7.482;2022-10-12T11:10:16;8.83;;;7.90;;
4980;SDS011;2507;50.392;7.482;2022-10-12T11:12:45;9.10;;;8.20;;
4980;SDS011;2507;50.392;7.482;2022-10-12T11:18:05;11.30;;;8.20;;
4980;SDS011;2507;50.392;7.482;2022-10-12T11:23:34;11.90;;;8.27;;
4980;SDS011;2507;50.392;7.482;2022-10-12T11:26:07;12.40;;;8.63;;
4980;SDS011;2507;50.392;7.482;2022-10-12T11:28:39;9.63;;;7.93;;
4980;SDS011;2507;50.392;7.482;2022-10-12T11:31:06;14.70;;;8.10;;
4980;SDS011;2507;50.392;7.482;2022-10-12T11:33:42;11.80;;;7.50;;
4980;SDS011;2507;50.392;7.482;2022-10-12T11:36:10;7.27;;;6.57;;
4980;SDS011;2507;50.392;7.482;2022-10-12T11:38:40;9.70;;;6.97;;
4980;SDS011;2507;50.392;7.482;2022-10-12T11:43:50;10.33;;;5.90;;
4980;SDS011;2507;50.392;7.482;2022-10-12T11:46:22;10.03;;;5.43;;
4980;SDS011;2507;50.392;7.482;2022-10-12T11:49:16;7.73;;;5.57;;
4980;SDS011;2507;50.392;7.482;2022-10-12T11:51:50;7.03;;;6.03;;
4980;SDS011;2507;50.392;7.482;2022-10-12T11:57:03;13.47;;;6.73;;
4980;SDS011;2507;50.392;7.482;2022-10-12T12:02:30;14.70;;;6.60;;
4980;SDS011;2507;50.392;7.482;2022-10-12T12:05:11;12.43;;;6.13;;
4980;SDS011;2507;50.392;7.482;2022-10-12T12:07:52;10.80;;;6.40;;
4980;SDS011;2507;50.392;7.482;2022-10-12T12:18:17;9.20;;;5.93;;
4980;SDS011;2507;50.392;7.482;2022-10-12T12:28:35;10.50;;;5.93;;
4980;SDS011;2507;50.392;7.482;2022-10-12T12:33:32;11.97;;;6.23;;
4980;SDS011;2507;50.392;7.482;2022-10-12T12:36:12;14.00;;;7.57;;
4980;SDS011;2507;50.392;7.482;2022-10-12T12:38:49;12.93;;;6.33;;
4980;SDS011;2507;50.392;7.482;2022-10-12T12:41:23;17.57;;;7.90;;
4980;SDS011;2507;50.392;7.482;2022-10-12T12:43:53;19.03;;;6.70;;
4980;SDS011;2507;50.392;7.482;2022-10-12T12:46:21;12.33;;;6.93;;
4980;SDS011;2507;50.392;7.482;2022-10-12T12:51:33;11.37;;;6.93;;
4980;SDS011;2507;50.392;7.482;2022-10-12T12:54:06;13.33;;;6.90;;
4980;SDS011;2507;50.392;7.482;2022-10-12T12:56:39;9.07;;;6.30;;
4980;SDS011;2507;50.392;7.482;2022-10-12T12:59:22;13.10;;;6.23;;
4980;SDS011;2507;50.392;7.482;2022-10-12T13:10:25;10.03;;;5.90;;
4980;SDS011;2507;50.392;7.482;2022-10-12T13:15:40;10.37;;;6.67;;
4980;SDS011;2507;50.392;7.482;2022-10-12T13:20:51;15.07;;;6.70;;
4980;SDS011;2507;50.392;7.482;2022-10-12T13:23:18;16.77;;;6.10;;
4980;SDS011;2507;50.392;7.482;2022-10-12T13:25:49;21.03;;;5.40;;
4980;SDS011;2507;50.392;7.482;2022-10-12T13:28:22;15.77;;;6.37;;
4980;SDS011;2507;50.392;7.482;2022-10-12T13:30:57;11.10;;;5.70;;
4980;SDS011;2507;50.392;7.482;2022-10-12T13:33:30;16.37;;;6.10;;
4980;SDS011;2507;50.392;7.482;2022-10-12T13:36:19;10.63;;;5.87;;
4980;SDS011;2507;50.392;7.482;2022-10-12T13:38:53;14.10;;;6.10;;
4980;SDS011;2507;50.392;7.482;2022-10-12T13:41:20;11.47;;;5.30;;
4980;SDS011;2507;50.392;7.482;2022-10-12T13:49:14;16.37;;;6.13;;
4980;SDS011;2507;50.392;7.482;2022-10-12T13:51:40;9.60;;;5.50;;
4980;SDS011;2507;50.392;7.482;2022-10-12T13:56:58;12.63;;;5.77;;
4980;SDS011;2507;50.392;7.482;2022-10-12T13:59:27;15.13;;;6.10;;
4980;SDS011;2507;50.392;7.482;2022-10-12T14:01:59;12.43;;;5.63;;
4980;SDS011;2507;50.392;7.482;2022-10-12T14:04:27;10.87;;;5.73;;
4980;SDS011;2507;50.392;7.482;2022-10-12T14:06:55;16.07;;;5.83;;
4980;SDS011;2507;50.392;7.482;2022-10-12T14:09:29;13.40;;;5.40;;
4980;SDS011;2507;50.392;7.482;2022-10-12T14:12:08;10.10;;;5.20;;
4980;SDS011;2507;50.392;7.482;2022-10-12T14:14:35;9.67;;;5.07;;
4980;SDS011;2507;50.392;7.482;2022-10-12T14:17:02;13.77;;;5.23;;
4980;SDS011;2507;50.392;7.482;2022-10-12T14:21:56;11.97;;;5.47;;
4980;SDS011;2507;50.392;7.482;2022-10-12T14:24:23;8.83;;;4.47;;
4980;SDS011;2507;50.392;7.482;2022-10-12T14:26:59;6.57;;;4.50;;
4980;SDS011;2507;50.392;7.482;2022-10-12T14:34:37;7.73;;;4.77;;
4980;SDS011;2507;50.392;7.482;2022-10-12T14:39:37;8.07;;;5.27;;
4980;SDS011;2507;50.392;7.482;2022-10-12T14:42:52;13.23;;;4.90;;
4980;SDS011;2507;50.392;7.482;2022-10-12T14:44:52;8.23;;;5.40;;
4980;SDS011;2507;50.392;7.482;2022-10-12T14:49:58;33.87;;;5.80;;
4980;SDS011;2507;50.392;7.482;2022-10-12T14:52:37;16.50;;;6.77;;
4980;SDS011;2507;50.392;7.482;2022-10-12T14:55:28;10.17;;;7.10;;
4980;SDS011;2507;50.392;7.482;2022-10-12T14:57:54;21.27;;;7.03;;
4980;SDS011;2507;50.392;7.482;2022-10-12T15:00:24;11.80;;;6.40;;
4980;SDS011;2507;50.392;7.482;2022-10-12T15:02:54;10.37;;;6.80;;
4980;SDS011;2507;50.392;7.482;2022-10-12T15:05:21;11.60;;;5.87;;
4980;SDS011;2507;50.392;7.482;2022-10-12T15:07:48;18.47;;;6.40;;
4980;SDS011;2507;50.392;7.482;2022-10-12T15:10:15;9.70;;;6.50;;
4980;SDS011;2507;50.392;7.482;2022-10-12T15:12:41;11.07;;;6.50;;
4980;SDS011;2507;50.392;7.482;2022-10-12T15:15:17;8.70;;;5.70;;
4980;SDS011;2507;50.392;7.482;2022-10-12T15:17:51;8.07;;;5.20;;
4980;SDS011;2507;50.392;7.482;2022-10-12T15:20:16;6.70;;;5.20;;
4980;SDS011;2507;50.392;7.482;2022-10-12T15:22:43;8.50;;;5.63;;
4980;SDS011;2507;50.392;7.482;2022-10-12T15:25:31;6.07;;;5.20;;
4980;SDS011;2507;50.392;7.482;2022-10-12T15:28:08;14.63;;;6.10;;
4980;SDS011;2507;50.392;7.482;2022-10-12T15:30:34;7.97;;;5.30;;
4980;SDS011;2507;50.392;7.482;2022-10-12T15:32:59;8.80;;;6.17;;
4980;SDS011;2507;50.392;7.482;2022-10-12T15:35:25;12.23;;;5.40;;
4980;SDS011;2507;50.392;7.482;2022-10-12T15:37:59;10.23;;;5.60;;
4980;SDS011;2507;50.392;7.482;2022-10-12T15:40:26;10.23;;;6.50;;
4980;SDS011;2507;50.392;7.482;2022-10-12T15:42:52;8.80;;;6.13;;
4980;SDS011;2507;50.392;7.482;2022-10-12T15:45:25;16.53;;;6.37;;
4980;SDS011;2507;50.392;7.482;2022-10-12T15:47:58;9.03;;;5.70;;
4980;SDS011;2507;50.392;7.482;2022-10-12T15:50:25;14.33;;;7.20;;
4980;SDS011;2507;50.392;7.482;2022-10-12T15:52:55;13.33;;;7.00;;
4980;SDS011;2507;50.392;7.482;2022-10-12T15:55:22;16.70;;;9.67;;
4980;SDS011;2507;50.392;7.482;2022-10-12T15:57:49;10.57;;;7.27;;
4980;SDS011;2507;50.392;7.482;2022-10-12T16:00:16;12.13;;;7.20;;
4980;SDS011;2507;50.392;7.482;2022-10-12T16:02:43;9.70;;;6.60;;
4980;SDS011;2507;50.392;7.482;2022-10-12T16:07:44;11.33;;;6.60;;
4980;SDS011;2507;50.392;7.482;2022-10-12T16:10:10;11.17;;;7.10;;
4980;SDS011;2507;50.392;7.482;2022-10-12T16:12:42;14.40;;;10.77;;
4980;SDS011;2507;50.392;7.482;2022-10-12T16:15:13;67.33;;;42.20;;
4980;SDS011;2507;50.392;7.482;2022-10-12T16:17:43;84.57;;;46.10;;
4980;SDS011;2507;50.392;7.482;2022-10-12T16:20:08;127.90;;;61.90;;
4980;SDS011;2507;50.392;7.482;2022-10-12T16:22:34;42.00;;;24.50;;
4980;SDS011;2507;50.392;7.482;2022-10-12T16:25:01;20.77;;;14.07;;
4980;SDS011;2507;50.392;7.482;2022-10-12T16:27:28;13.67;;;10.17;;
4980;SDS011;2507;50.392;7.482;2022-10-12T16:29:54;9.63;;;8.13;;
4980;SDS011;2507;50.392;7.482;2022-10-12T16:32:19;16.60;;;13.93;;
4980;SDS011;2507;50.392;7.482;2022-10-12T16:34:45;16.10;;;12.60;;
4980;SDS011;2507;50.392;7.482;2022-10-12T16:37:10;15.07;;;11.20;;
4980;SDS011;2507;50.392;7.482;2022-10-12T16:39:36;15.20;;;12.17;;
4980;SDS011;2507;50.392;7.482;2022-10-12T16:42:01;18.20;;;12.53;;
4980;SDS011;2507;50.392;7.482;2022-10-12T16:44:26;10.10;;;8.53;;
4980;SDS011;2507;50.392;7.482;2022-10-12T16:46:51;15.93;;;14.00;;
4980;SDS011;2507;50.392;7.482;2022-10-12T16:49:17;25.03;;;19.70;;
4980;SDS011;2507;50.392;7.482;2022-10-12T16:51:42;16.30;;;14.60;;
4980;SDS011;2507;50.392;7.482;2022-10-12T16:54:07;11.60;;;10.40;;
4980;SDS011;2507;50.392;7.482;2022-10-12T16:56:33;14.27;;;10.07;;
4980;SDS011;2507;50.392;7.482;2022-10-12T16:58:58;11.53;;;7.83;;
4980;SDS011;2507;50.392;7.482;2022-10-12T17:01:23;10.90;;;6.83;;
4980;SDS011;2507;50.392;7.482;2022-10-12T17:03:51;14.93;;;9.20;;
4980;SDS011;2507;50.392;7.482;2022-10-12T17:06:17;11.50;;;8.83;;
4980;SDS011;2507;50.392;7.482;2022-10-12T17:08:42;10.70;;;9.33;;
4980;SDS011;2507;50.392;7.482;2022-10-12T17:11:14;8.87;;;7.97;;
4980;SDS011;2507;50.392;7.482;2022-10-12T17:13:41;12.07;;;8.67;;
4980;SDS011;2507;50.392;7.482;2022-10-12T17:16:07;8.27;;;7.43;;
4980;SDS011;2507;50.392;7.482;2022-10-12T17:18:51;17.77;;;14.00;;